Time;durP1;ratioP1;P1;durP2;ratioP2;P2;SDS_P1;SDS_P2;PMS_P1;PMS_P2;Temp;Humidity;BMP_temperature;BMP_pressure;BME280_temperature;BME280_humidity;BME280_pressure;Samples;Min_cycle;Max_cycle;Signal;HPM_P1;HPM_P2
2022/07/21 00:01:33;;;;;;;15.10;8.20;;;;;;;-148.88;100.00;75021.69;4997253;28;20034;-79
2022/07/21 00:03:58;;;;;;;12.50;8.57;;;;;;;-148.88;100.00;74991.22;4997904;28;20029;-79
2022/07/21 00:06:23;;;;;;;14.88;8.75;;;;;;;-148.88;100.00;74966.84;4996993;28;20022;-80
2022/07/21 00:08:49;;;;;;;14.20;8.52;;;;;;;-148.88;100.00;74972.94;4998616;28;20472;-79
2022/07/21 00:11:14;;;;;;;12.95;8.43;;;;;;;-148.88;100.00;74972.94;4996566;28;20022;-79
2022/07/21 00:13:39;;;;;;;18.27;9.60;;;;;;;-148.88;100.00;74991.22;4999178;28;20034;-79
2022/07/21 00:16:05;;;;;;;15.77;9.93;;;;;;;-148.88;100.00;74993.25;4999985;28;20022;-79
2022/07/21 00:18:30;;;;;;;26.73;10.57;;;;;;;-148.88;100.00;74999.34;4997354;28;20022;-79
2022/07/21 00:20:56;;;;;;;14.20;9.65;;;;;;;-148.88;100.00;74989.19;4998022;28;20031;-79
2022/07/21 00:23:23;;;;;;;14.40;8.63;;;;;;;-148.88;100.00;74966.84;4998269;28;20391;-79
2022/07/21 00:25:49;;;;;;;11.57;8.93;;;;;;;-148.88;100.00;74946.53;4997702;28;20033;-79
2022/07/21 00:28:14;;;;;;;15.95;8.52;;;;;;;-148.88;100.00;74928.28;4997508;28;20018;-79
2022/07/21 00:30:39;;;;;;;13.25;8.02;;;;;;;-148.88;100.00;74932.34;4995932;28;20058;-77
2022/07/21 00:33:05;;;;;;;13.32;8.65;;;;;;;-148.88;100.00;74907.97;4993512;28;20026;-78
2022/07/21 00:35:30;;;;;;;13.23;8.65;;;;;;;-148.88;100.00;74901.88;4995461;28;20042;-79
2022/07/21 00:37:55;;;;;;;13.95;8.73;;;;;;;-148.88;100.00;74907.97;4996444;28;20546;-79
2022/07/21 00:40:21;;;;;;;15.07;8.90;;;;;;;-148.88;100.00;74918.13;4998196;28;20037;-79
2022/07/21 00:42:46;;;;;;;11.77;8.75;;;;;;;-148.88;100.00;74916.09;4996345;28;20054;-79
2022/07/21 00:45:12;;;;;;;13.57;8.85;;;;;;;-148.88;100.00;74920.16;4998099;28;20027;-78
2022/07/21 00:47:37;;;;;;;13.98;8.45;;;;;;;-148.88;100.00;74928.28;4998270;28;20061;-78
2022/07/21 00:50:07;;;;;;;13.35;8.85;;;;;;;-148.88;100.00;74928.28;4996770;28;20042;-79
2022/07/21 00:52:32;;;;;;;11.93;8.48;;;;;;;-148.88;100.00;74946.53;4997236;28;20033;-78
2022/07/21 00:54:58;;;;;;;12.13;8.77;;;;;;;-148.88;100.00;74946.53;4995766;28;20026;-79
2022/07/21 00:57:23;;;;;;;12.82;8.15;;;;;;;-148.88;100.00;74928.28;4998714;28;20034;-79
2022/07/21 00:59:48;;;;;;;11.93;8.38;;;;;;;-148.88;100.00;74938.44;4998128;28;20126;-79
2022/07/21 01:02:14;;;;;;;14.00;9.10;;;;;;;-148.88;100.00;74932.34;4999322;28;20037;-79
2022/07/21 01:04:39;;;;;;;14.95;9.25;;;;;;;-148.88;100.00;74936.41;4996687;28;20061;-79
2022/07/21 01:07:05;;;;;;;13.57;9.55;;;;;;;-148.88;100.00;74934.38;4997006;28;20026;-79
2022/07/21 01:09:32;;;;;;;14.07;10.07;;;;;;;-148.88;100.00;74924.22;4993626;28;20105;-78
2022/07/21 01:11:58;;;;;;;15.38;10.82;;;;;;;-148.88;100.00;74944.53;4994201;28;20512;-78
2022/07/21 01:14:24;;;;;;;17.75;12.50;;;;;;;-148.88;100.00;74960.75;4996336;28;20097;-78
2022/07/21 01:16:50;;;;;;;17.00;11.93;;;;;;;-148.88;100.00;74966.84;4996850;28;20019;-79
2022/07/21 01:19:15;;;;;;;18.77;13.60;;;;;;;-148.88;100.00;74981.06;4998513;28;20045;-79
2022/07/21 01:21:43;;;;;;;18.35;13.43;;;;;;;-148.88;100.00;74991.22;5013400;28;20060;-78
2022/07/21 01:24:09;;;;;;;18.00;14.07;;;;;;;-148.88;100.00;74993.25;5015847;28;20503;-79
2022/07/21 01:26:46;;;;;;;21.17;15.57;;;;;;;-148.88;100.00;74991.22;5001582;28;20050;-79
2022/07/21 01:29:12;;;;;;;21.10;14.80;;;;;;;-148.88;100.00;74997.31;5001284;28;20049;-78
2022/07/21 01:31:40;;;;;;;24.63;16.50;;;;;;;-148.88;100.00;75009.50;4999867;28;20022;-78
2022/07/21 01:34:06;;;;;;;22.05;16.23;;;;;;;-148.88;100.00;75009.50;5000865;28;20018;-79
2022/07/21 01:36:31;;;;;;;19.25;16.00;;;;;;;-148.88;100.00;75007.47;4999016;28;20033;-79
2022/07/21 01:41:40;;;;;;;22.75;16.60;;;;;;;-148.88;100.00;74993.25;5000459;28;20113;-78
2022/07/21 01:44:08;;;;;;;22.38;16.77;;;;;;;-148.88;100.00;74981.06;5000957;28;20069;-79
2022/07/21 01:46:37;;;;;;;21.35;17.98;;;;;;;-148.88;100.00;74972.94;4999233;28;20030;-77
2022/07/21 01:49:03;;;;;;;25.30;18.80;;;;;;;-148.88;100.00;74960.75;4997171;28;20031;-78
2022/07/21 01:51:29;;;;;;;22.70;17.02;;;;;;;-148.88;100.00;74958.72;4997462;28;20106;-78
2022/07/21 01:53:54;;;;;;;22.15;17.50;;;;;;;-148.88;100.00;74950.59;4998905;28;20054;-79
2022/07/21 01:56:22;;;;;;;21.70;16.67;;;;;;;-148.88;100.00;74944.53;5001018;28;20026;-78
2022/07/21 01:58:48;;;;;;;23.50;17.65;;;;;;;-148.88;100.00;74936.41;4999484;28;20057;-78
2022/07/21 02:01:18;;;;;;;24.15;17.50;;;;;;;-148.88;100.00;74944.53;4999977;28;20034;-78
2022/07/21 02:03:44;;;;;;;23.10;18.08;;;;;;;-148.88;100.00;74952.63;4998798;28;20049;-78
2022/07/21 02:06:10;;;;;;;24.25;18.23;;;;;;;-148.88;100.00;74948.56;4999787;28;20022;-78
2022/07/21 02:08:36;;;;;;;27.85;17.75;;;;;;;-148.88;100.00;74952.63;4999188;28;20018;-78
2022/07/21 02:11:02;;;;;;;22.52;18.30;;;;;;;-148.88;100.00;74950.59;4999875;28;20026;-78
2022/07/21 02:13:27;;;;;;;25.95;19.00;;;;;;;-148.88;100.00;74948.56;4999624;28;20030;-78
2022/07/21 02:15:53;;;;;;;25.17;18.90;;;;;;;-148.88;100.00;74944.53;4999066;28;20451;-78
2022/07/21 02:18:18;;;;;;;26.48;18.73;;;;;;;-148.88;100.00;74934.38;4997942;28;20018;-78
2022/07/21 02:20:44;;;;;;;22.38;18.45;;;;;;;-148.88;100.00;74924.22;4997619;28;20038;-78
2022/07/21 02:23:11;;;;;;;25.70;19.27;;;;;;;-148.88;100.00;74920.16;4998178;28;20113;-78
2022/07/21 02:25:36;;;;;;;25.50;19.73;;;;;;;-148.88;100.00;74912.03;4997830;28;20026;-77
2022/07/21 02:28:01;;;;;;;24.20;20.02;;;;;;;-148.88;100.00;74903.91;4997078;28;20495;-77
2022/07/21 02:30:27;;;;;;;27.67;19.88;;;;;;;-148.88;100.00;74901.88;4997318;28;20093;-78
2022/07/21 02:32:53;;;;;;;26.92;20.70;;;;;;;-148.88;100.00;74907.97;4998189;28;20077;-78
2022/07/21 02:35:18;;;;;;;24.10;19.38;;;;;;;-148.88;100.00;74910.00;4998618;28;20026;-78
2022/07/21 02:37:43;;;;;;;26.75;21.00;;;;;;;-148.88;100.00;74922.19;4999126;28;20034;-78
2022/07/21 02:40:09;;;;;;;28.98;23.35;;;;;;;-148.88;100.00;74936.41;4999791;28;20034;-78
2022/07/21 02:42:34;;;;;;;28.60;23.10;;;;;;;-148.88;100.00;74936.41;4999181;28;20475;-78
2022/07/21 02:44:59;;;;;;;29.55;24.85;;;;;;;-148.88;100.00;74940.47;4999005;28;20036;-78
2022/07/21 02:47:25;;;;;;;35.17;27.02;;;;;;;-148.88;100.00;74926.25;4999241;28;20411;-78
2022/07/21 02:49:50;;;;;;;29.88;24.63;;;;;;;-148.88;100.00;74916.09;5008366;23;20046;-76
2022/07/21 02:52:15;;;;;;;33.60;26.25;;;;;;;-148.88;100.00;74936.41;4994629;28;20026;-76
2022/07/21 02:54:41;;;;;;;36.70;27.45;;;;;;;-148.88;100.00;74946.53;4994912;28;20031;-75
2022/07/21 02:57:06;;;;;;;31.08;26.00;;;;;;;-148.88;100.00;74948.56;4994889;28;20023;-75
2022/07/21 02:59:31;;;;;;;31.35;25.50;;;;;;;-148.88;100.00;74948.56;4994422;28;20023;-75
2022/07/21 03:01:57;;;;;;;32.72;25.30;;;;;;;-148.88;100.00;74950.59;4993167;28;20431;-75
2022/07/21 03:04:22;;;;;;;29.95;21.35;;;;;;;-148.88;100.00;74958.72;4994426;28;20022;-75
2022/07/21 03:06:47;;;;;;;26.85;21.38;;;;;;;-148.88;100.00;74966.84;4993096;28;20045;-75
2022/07/21 03:09:12;;;;;;;26.95;20.63;;;;;;;-148.88;100.00;74968.88;4994225;28;20014;-75
2022/07/21 03:11:38;;;;;;;23.27;18.13;;;;;;;-148.88;100.00;74977.00;4994212;28;20023;-75
2022/07/21 03:14:03;;;;;;;23.80;17.55;;;;;;;-148.88;100.00;74977.00;4994167;28;20022;-75
2022/07/21 03:16:29;;;;;;;20.65;15.63;;;;;;;-148.88;100.00;74997.31;4994390;28;20038;-75
2022/07/21 03:18:54;;;;;;;18.27;13.27;;;;;;;-148.88;100.00;75009.50;4994175;28;20025;-75
2022/07/21 03:21:19;;;;;;;14.85;12.27;;;;;;;-148.88;100.00;75017.63;4993963;28;20029;-75
2022/07/21 03:23:45;;;;;;;18.17;13.35;;;;;;;-148.88;100.00;75001.38;4994227;28;20054;-75
2022/07/21 03:26:14;;;;;;;19.35;13.88;;;;;;;-148.88;100.00;75001.38;4994147;28;20403;-75
2022/07/21 03:28:41;;;;;;;16.42;12.95;;;;;;;-148.88;100.00;74997.31;4994084;28;20030;-75
2022/07/21 03:31:07;;;;;;;16.67;13.38;;;;;;;-148.88;100.00;74997.31;4993882;28;20022;-75
2022/07/21 03:33:32;;;;;;;14.13;12.07;;;;;;;-148.88;100.00;74995.28;4993918;28;20088;-75
2022/07/21 03:35:58;;;;;;;15.85;11.90;;;;;;;-148.88;100.00;74985.13;4994018;28;20116;-75
2022/07/21 03:38:24;;;;;;;14.93;11.07;;;;;;;-148.88;100.00;74993.25;4994154;28;20053;-76
2022/07/21 03:40:50;;;;;;;18.05;10.70;;;;;;;-148.88;100.00;74989.19;4992737;28;20064;-75
2022/07/21 03:43:16;;;;;;;16.52;11.15;;;;;;;-148.88;100.00;74979.03;4992513;28;20061;-75
2022/07/21 03:45:41;;;;;;;15.15;11.02;;;;;;;-148.88;100.00;74977.00;4992948;28;20391;-75
2022/07/21 03:48:08;;;;;;;13.90;10.77;;;;;;;-148.88;100.00;74972.94;4993522;28;20030;-75
2022/07/21 03:50:34;;;;;;;14.80;10.32;;;;;;;-148.88;100.00;74981.06;4993485;28;20022;-76
2022/07/21 03:53:00;;;;;;;14.13;10.48;;;;;;;-148.88;100.00;74983.09;4993711;28;20056;-75
2022/07/21 03:55:26;;;;;;;14.30;11.70;;;;;;;-148.88;100.00;74989.19;4993658;28;20523;-75
2022/07/21 03:58:00;;;;;;;16.50;11.60;;;;;;;-148.88;100.00;74993.25;4992207;28;20369;-75
2022/07/21 04:00:31;;;;;;;20.90;16.85;;;;;;;-148.88;100.00;75001.38;4993528;28;20396;-75
2022/07/21 04:02:57;;;;;;;32.65;25.35;;;;;;;-148.88;100.00;75013.56;4993303;28;20022;-75
2022/07/21 04:05:23;;;;;;;31.00;25.50;;;;;;;-148.88;100.00;75005.44;4993313;28;20053;-75
2022/07/21 04:07:51;;;;;;;21.33;17.50;;;;;;;-148.88;100.00;75037.94;4993493;28;20026;-75
2022/07/21 04:10:19;;;;;;;14.25;12.75;;;;;;;-148.88;100.00;75072.47;4993299;28;20054;-75
2022/07/21 04:12:45;;;;;;;14.77;13.13;;;;;;;-148.88;100.00;75082.63;4993214;28;20435;-75
2022/07/21 04:15:11;;;;;;;15.20;11.80;;;;;;;-148.88;100.00;75092.78;4993191;28;20541;-75
2022/07/21 04:17:37;;;;;;;13.57;11.05;;;;;;;-148.88;100.00;75113.06;4993300;28;20476;-75
2022/07/21 04:20:03;;;;;;;11.70;10.25;;;;;;;-148.88;100.00;75131.34;4993067;28;20149;-75
2022/07/21 04:22:29;;;;;;;13.40;10.07;;;;;;;-148.88;100.00;75133.38;4992015;28;20079;-76
2022/07/21 04:24:54;;;;;;;11.43;9.68;;;;;;;-148.88;100.00;75137.44;4993027;28;20030;-75
2022/07/21 04:27:20;;;;;;;12.32;9.55;;;;;;;-148.88;100.00;75151.66;4993089;28;20133;-76
2022/07/21 04:29:45;;;;;;;10.48;8.80;;;;;;;-148.88;100.00;75169.94;4991540;28;20104;-76
2022/07/21 04:32:10;;;;;;;10.13;8.15;;;;;;;-148.88;100.00;75178.06;4992016;28;20030;-76
2022/07/21 04:34:36;;;;;;;12.18;8.55;;;;;;;-148.88;100.00;75192.28;4991695;28;20502;-76
2022/07/21 04:37:01;;;;;;;8.85;7.38;;;;;;;-148.88;100.00;75196.34;4993065;28;20033;-76
2022/07/21 04:39:27;;;;;;;9.05;6.80;;;;;;;-148.88;100.00;75216.66;4993060;28;20026;-76
2022/07/21 04:41:53;;;;;;;7.68;6.10;;;;;;;-148.88;100.00;75220.72;4993207;28;20022;-76
2022/07/21 04:44:18;;;;;;;8.73;5.88;;;;;;;-148.88;100.00;75208.53;4991879;28;20379;-76
2022/07/21 04:46:43;;;;;;;7.75;5.45;;;;;;;-148.88;100.00;75208.53;4993401;28;20027;-76
2022/07/21 04:49:08;;;;;;;7.80;6.00;;;;;;;-148.88;100.00;75210.56;4992992;28;20027;-77
2022/07/21 04:51:34;;;;;;;6.50;5.60;;;;;;;-148.88;100.00;75192.28;4993710;28;20030;-76
2022/07/21 04:53:59;;;;;;;7.60;5.85;;;;;;;-148.88;100.00;75212.59;4993146;28;20550;-77
2022/07/21 04:56:24;;;;;;;10.10;6.07;;;;;;;-148.88;100.00;75220.72;4993171;28;20040;-76
2022/07/21 04:58:49;;;;;;;9.25;6.85;;;;;;;-148.88;100.00;75216.66;4996324;28;20022;-76
2022/07/21 05:01:17;;;;;;;8.90;7.07;;;;;;;-148.88;100.00;75208.53;4997047;28;20029;-76
2022/07/21 05:03:43;;;;;;;9.75;7.55;;;;;;;-148.88;100.00;75212.59;4996618;28;20109;-76
2022/07/21 05:06:08;;;;;;;9.63;7.63;;;;;;;-148.88;100.00;75208.53;4996553;28;20608;-76
2022/07/21 05:08:33;;;;;;;8.23;7.28;;;;;;;-148.88;100.00;75200.41;4996441;28;20109;-76
2022/07/21 05:10:58;;;;;;;7.60;6.60;;;;;;;-148.88;100.00;75204.47;4995207;28;20077;-76
2022/07/21 05:13:24;;;;;;;8.95;7.10;;;;;;;-148.88;100.00;75216.66;4996547;28;20068;-76
2022/07/21 05:15:49;;;;;;;9.13;7.68;;;;;;;-148.88;100.00;75216.66;4996690;28;20026;-76
2022/07/21 05:18:14;;;;;;;9.57;7.82;;;;;;;-148.88;100.00;75212.59;4996509;28;20109;-76
2022/07/21 05:20:39;;;;;;;10.20;7.60;;;;;;;-148.88;100.00;75208.53;4995067;28;20030;-77
2022/07/21 05:23:05;;;;;;;11.27;7.85;;;;;;;-148.88;100.00;75208.53;4996346;28;20028;-76
2022/07/21 05:25:31;;;;;;;10.48;8.18;;;;;;;-148.88;100.00;75208.53;4995123;28;20487;-76
2022/07/21 05:27:57;;;;;;;10.95;8.88;;;;;;;-148.88;100.00;75204.47;4996537;28;20081;-76
2022/07/21 05:30:22;;;;;;;10.27;8.55;;;;;;;-148.88;100.00;75202.44;4995096;28;20054;-76
2022/07/21 05:32:48;;;;;;;10.02;8.35;;;;;;;-148.88;100.00;75196.34;4996487;28;20022;-76
2022/07/21 05:35:13;;;;;;;11.27;9.18;;;;;;;-148.88;100.00;75184.16;4996172;28;20024;-76
2022/07/21 05:37:39;;;;;;;11.73;9.43;;;;;;;-148.88;100.00;75194.31;4996303;28;20026;-76
2022/07/21 05:40:06;;;;;;;10.27;9.18;;;;;;;-148.88;100.00;75180.09;4994642;28;20037;-76
2022/07/21 05:42:31;;;;;;;11.27;8.80;;;;;;;-148.88;100.00;75167.91;4996021;28;20487;-76
2022/07/21 05:44:56;;;;;;;12.65;9.68;;;;;;;-148.88;100.00;75161.81;4995957;28;20069;-76
2022/07/21 05:47:22;;;;;;;10.48;8.68;;;;;;;-148.88;100.00;75155.72;4995882;28;20018;-76
2022/07/21 05:49:47;;;;;;;11.50;9.40;;;;;;;-148.88;100.00;75147.59;4995704;28;20047;-76
2022/07/21 05:52:12;;;;;;;14.57;10.98;;;;;;;-148.88;100.00;75147.59;4994664;28;20022;-76
2022/07/21 05:54:38;;;;;;;13.23;10.13;;;;;;;-148.88;100.00;75135.41;4995888;28;20026;-76
2022/07/21 05:57:03;;;;;;;17.80;12.98;;;;;;;-148.88;100.00;75135.41;4994553;28;20022;-76
2022/07/21 05:59:28;;;;;;;21.38;17.05;;;;;;;-148.88;100.00;75143.53;4994328;28;20037;-77
2022/07/21 06:01:53;;;;;;;25.92;19.00;;;;;;;-148.88;100.00;75121.19;4995582;28;20022;-76
2022/07/21 06:04:19;;;;;;;30.77;22.10;;;;;;;-148.88;100.00;75131.34;4995458;28;20026;-76
2022/07/21 06:06:44;;;;;;;28.50;22.17;;;;;;;-148.88;100.00;75115.09;4995489;28;20022;-76
2022/07/21 06:09:09;;;;;;;30.42;23.23;;;;;;;-148.88;100.00;75131.34;4994467;28;20105;-76
2022/07/21 06:11:34;;;;;;;29.85;22.10;;;;;;;-148.88;100.00;75125.25;4995456;28;20053;-76
2022/07/21 06:14:00;;;;;;;30.02;22.85;;;;;;;-148.88;100.00;75123.22;4994075;28;20032;-76
2022/07/21 06:16:25;;;;;;;30.10;22.55;;;;;;;-148.88;100.00;75115.09;4993988;28;20038;-76
2022/07/21 06:18:50;;;;;;;26.33;21.38;;;;;;;-148.88;100.00;75131.34;4993904;28;20069;-76
2022/07/21 06:21:17;;;;;;;31.00;22.67;;;;;;;-148.88;100.00;75131.34;4994989;28;20041;-76
2022/07/21 06:23:43;;;;;;;32.63;24.33;;;;;;;-148.88;100.00;75153.69;4995647;28;20416;-76
2022/07/21 06:26:08;;;;;;;31.52;24.00;;;;;;;-148.88;100.00;75147.59;4995040;28;20538;-76
2022/07/21 06:28:33;;;;;;;30.88;24.42;;;;;;;-148.88;100.00;75155.72;4994947;28;20032;-76
2022/07/21 06:30:59;;;;;;;28.75;23.70;;;;;;;-148.88;100.00;75155.72;4995239;28;20527;-76
2022/07/21 06:33:24;;;;;;;33.60;25.73;;;;;;;-148.88;100.00;75155.72;4995030;28;20105;-76
2022/07/21 06:35:49;;;;;;;33.92;26.63;;;;;;;-148.88;100.00;75155.72;4995004;28;20081;-76
2022/07/21 06:38:15;;;;;;;34.55;27.52;;;;;;;-148.88;100.00;75159.78;4994952;28;20048;-76
2022/07/21 06:40:40;;;;;;;33.90;27.17;;;;;;;-148.88;100.00;75167.91;4993579;28;20033;-76
2022/07/21 06:43:06;;;;;;;31.25;25.08;;;;;;;-148.88;100.00;75169.94;4994839;28;20022;-77
2022/07/21 06:45:31;;;;;;;29.05;24.23;;;;;;;-148.88;100.00;75176.03;4993606;28;20438;-76
2022/07/21 06:48:14;;;;;;;28.52;23.08;;;;;;;-148.88;100.00;75171.97;4994884;28;20045;-76
2022/07/21 06:50:39;;;;;;;28.48;22.88;;;;;;;-148.88;100.00;75188.22;4994990;28;20443;-76
2022/07/21 06:53:06;;;;;;;24.52;21.40;;;;;;;-148.88;100.00;75200.41;4995021;28;20544;-75
2022/07/21 06:55:32;;;;;;;25.00;19.75;;;;;;;-148.88;100.00;75200.41;4994971;28;20076;-76
2022/07/21 06:57:57;;;;;;;21.58;19.25;;;;;;;-148.88;100.00;75190.25;4995034;28;20022;-76
2022/07/21 07:00:22;;;;;;;22.13;18.85;;;;;;;-148.88;100.00;75188.22;4994894;28;20076;-76
2022/07/21 07:02:48;;;;;;;21.33;18.58;;;;;;;-148.88;100.00;75188.22;4994869;28;20022;-76
2022/07/21 07:05:13;;;;;;;24.55;20.25;;;;;;;-148.88;100.00;75190.25;4994812;28;20413;-76
2022/07/21 07:07:39;;;;;;;23.23;20.30;;;;;;;-148.88;100.00;75188.22;4994944;28;20022;-76
2022/07/21 07:10:06;;;;;;;25.65;22.02;;;;;;;-148.88;100.00;75163.84;4994834;28;20030;-76
2022/07/21 07:12:31;;;;;;;27.95;22.10;;;;;;;-148.88;100.00;75127.28;4993478;28;20109;-76
2022/07/21 07:14:56;;;;;;;25.05;22.35;;;;;;;-148.88;100.00;75111.03;4993388;28;20515;-76
2022/07/21 07:17:22;;;;;;;25.27;21.73;;;;;;;-148.88;100.00;75102.91;4993388;28;20032;-76
2022/07/21 07:19:48;;;;;;;26.85;21.65;;;;;;;-148.88;100.00;75070.44;4994402;28;20025;-76
2022/07/21 07:22:14;;;;;;;24.98;20.98;;;;;;;-148.88;100.00;75062.31;4993278;28;20029;-76
2022/07/21 07:24:39;;;;;;;25.13;21.30;;;;;;;-148.88;100.00;75033.88;4994458;28;20026;-76
2022/07/21 07:27:05;;;;;;;20.27;17.85;;;;;;;-148.88;100.00;75037.94;5009614;28;20033;-75
2022/07/21 07:29:31;;;;;;;23.08;19.98;;;;;;;-148.88;100.00;75019.66;4994474;28;20050;-75
2022/07/21 07:31:57;;;;;;;20.90;18.67;;;;;;;-148.88;100.00;75039.97;4994313;28;20081;-75
2022/07/21 07:34:22;;;;;;;22.38;18.52;;;;;;;-148.88;100.00;75048.09;4994270;28;20034;-75
2022/07/21 07:36:48;;;;;;;20.00;17.88;;;;;;;-148.88;100.00;75058.25;4994358;28;20030;-75
2022/07/21 07:39:15;;;;;;;22.63;17.45;;;;;;;-148.88;100.00;75054.19;4994192;28;20026;-76
2022/07/21 07:41:41;;;;;;;20.55;18.35;;;;;;;-148.88;100.00;75044.03;4994181;28;20022;-76
2022/07/21 07:44:06;;;;;;;21.23;17.65;;;;;;;-148.88;100.00;75056.22;4992915;28;20076;-76
2022/07/21 07:46:31;;;;;;;21.10;18.67;;;;;;;-148.88;100.00;75066.38;4992938;28;20034;-76
2022/07/21 07:48:57;;;;;;;22.15;19.08;;;;;;;-148.88;100.00;75062.31;4993827;28;20030;-76
2022/07/21 07:51:23;;;;;;;23.88;20.40;;;;;;;-148.88;100.00;75035.91;4994237;28;20085;-76
2022/07/21 07:53:48;;;;;;;22.98;20.42;;;;;;;-148.88;100.00;75033.88;4993953;28;20030;-76
2022/07/21 07:56:14;;;;;;;25.50;22.15;;;;;;;-148.88;100.00;75037.94;4993997;28;20022;-76
2022/07/21 07:58:39;;;;;;;23.63;20.63;;;;;;;-148.88;100.00;75015.59;4992783;28;20026;-75
2022/07/21 08:01:05;;;;;;;26.63;21.85;;;;;;;-148.88;100.00;75013.56;4992739;28;20032;-75
2022/07/21 08:03:30;;;;;;;28.10;22.83;;;;;;;-148.88;100.00;74997.31;4994177;28;20027;-76
2022/07/21 08:05:59;;;;;;;24.17;21.52;;;;;;;-148.88;100.00;75013.56;4993921;28;20026;-75
2022/07/21 08:08:25;;;;;;;27.52;22.33;;;;;;;-148.88;100.00;75013.56;4993743;28;20022;-75
2022/07/21 08:10:51;;;;;;;24.75;22.13;;;;;;;-148.88;100.00;74974.97;4993748;28;20448;-75
2022/07/21 08:13:17;;;;;;;26.60;22.75;;;;;;;-148.88;100.00;74964.81;4993831;28;20480;-75
2022/07/21 08:15:45;;;;;;;25.63;22.00;;;;;;;-148.88;100.00;74985.13;4993802;28;20037;-76
2022/07/21 08:18:14;;;;;;;23.60;20.65;;;;;;;-148.88;100.00;74993.25;4993782;28;20029;-76
2022/07/21 08:20:39;;;;;;;25.90;21.08;;;;;;;-148.88;100.00;74964.81;4993634;28;20058;-76
2022/07/21 08:23:06;;;;;;;24.70;21.60;;;;;;;-148.88;100.00;74981.06;4993959;28;20027;-76
2022/07/21 08:25:32;;;;;;;22.55;20.10;;;;;;;-148.88;99.01;74981.06;4993679;28;20484;-75
2022/07/21 08:27:57;;;;;;;20.83;18.63;;;;;;;-148.88;98.09;74985.13;4992345;28;20053;-75
2022/07/21 08:30:23;;;;;;;22.63;19.40;;;;;;;-148.88;98.82;74979.03;4993868;28;20026;-75
2022/07/21 08:32:48;;;;;;;20.90;18.75;;;;;;;-148.88;96.64;74981.06;4995467;28;20550;-76
2022/07/21 08:35:13;;;;;;;20.13;17.98;;;;;;;-148.88;98.70;74962.78;4997824;28;20023;-76
2022/07/21 08:37:39;;;;;;;21.75;18.27;;;;;;;-148.88;99.06;74956.69;4997587;28;20494;-75
2022/07/21 08:40:07;;;;;;;19.33;17.10;;;;;;;-148.88;97.54;74942.47;4997353;28;20037;-75
2022/07/21 08:42:32;;;;;;;18.42;16.30;;;;;;;-148.88;95.38;74920.16;4997417;28;20033;-75
2022/07/21 08:44:58;;;;;;;19.85;17.75;;;;;;;-148.88;96.76;74922.19;4997519;28;20026;-75
2022/07/21 08:47:25;;;;;;;28.05;15.25;;;;;;;-148.88;96.68;74924.22;4997416;28;20022;-75
2022/07/21 08:49:50;;;;;;;16.50;14.73;;;;;;;-148.88;95.52;74907.97;5026996;23;20049;-85
2022/07/21 08:52:16;;;;;;;18.98;16.33;;;;;;;-148.88;95.20;74924.22;5016538;28;20083;-85
2022/07/21 08:54:41;;;;;;;17.08;15.20;;;;;;;-148.88;94.65;74928.28;5016695;28;20053;-85
2022/07/21 08:57:07;;;;;;;17.80;15.82;;;;;;;-148.88;96.03;74916.09;5016480;28;20411;-85
2022/07/21 08:59:32;;;;;;;18.25;15.75;;;;;;;-148.88;95.59;74926.25;5016414;28;20110;-85
2022/07/21 09:01:58;;;;;;;17.30;15.50;;;;;;;-148.88;95.58;74924.22;5016992;28;20036;-85
2022/07/21 09:04:32;;;;;;;17.33;14.88;;;;;;;-148.88;95.60;74936.41;5016200;28;20064;-85
2022/07/21 09:07:01;;;;;;;18.63;15.45;;;;;;;-148.88;93.73;74952.63;5016259;28;20096;-85
2022/07/21 09:09:29;;;;;;;17.13;15.32;;;;;;;-148.88;96.11;74932.34;5015937;28;20108;-84
2022/07/21 09:11:55;;;;;;;15.57;13.88;;;;;;;-148.88;95.14;74897.81;5016137;28;20038;-84
2022/07/21 09:14:26;;;;;;;16.58;13.40;;;;;;;-148.88;93.06;74881.56;5016609;28;20105;-84
2022/07/21 09:16:55;;;;;;;12.88;11.55;;;;;;;-148.88;92.46;74847.03;5015956;28;20030;-85
2022/07/21 09:19:28;;;;;;;13.27;11.45;;;;;;;-148.88;88.60;74828.75;5014591;28;20030;-84
2022/07/21 09:21:56;;;;;;;14.18;12.15;;;;;;;-148.88;89.41;74818.59;5014997;28;20026;-84
2022/07/21 09:24:33;;;;;;;14.30;11.85;;;;;;;-148.88;89.12;74834.84;5014775;28;20411;-84
2022/07/21 09:27:01;;;;;;;13.35;11.40;;;;;;;-148.88;91.04;74824.69;5015939;28;20381;-85
2022/07/21 09:29:36;;;;;;;12.63;11.30;;;;;;;-148.88;91.12;74806.44;5014728;28;20045;-85
2022/07/21 09:32:16;;;;;;;12.90;11.57;;;;;;;-148.88;86.55;74753.63;5015842;28;20041;-84
2022/07/21 09:34:41;;;;;;;13.18;11.40;;;;;;;-148.88;88.87;74743.47;5014580;28;20025;-84
2022/07/21 09:37:10;;;;;;;13.98;11.52;;;;;;;-148.88;87.08;74729.25;5014209;28;20026;-83
2022/07/21 09:39:54;;;;;;;13.27;11.38;;;;;;;-148.88;87.21;74753.63;5014334;28;20490;-84
2022/07/21 09:42:32;;;;;;;12.77;10.82;;;;;;;-148.88;86.77;74773.94;5013962;28;20474;-84
2022/07/21 09:45:00;;;;;;;13.40;11.60;;;;;;;-148.88;86.44;74814.53;5013023;28;20053;-84
2022/07/21 09:47:28;;;;;;;14.05;11.25;;;;;;;-148.88;87.85;74830.78;5015301;28;20029;-84
2022/07/21 09:49:55;;;;;;;11.93;10.73;;;;;;;-148.88;88.46;74834.84;5013979;28;20021;-84
2022/07/21 09:52:25;;;;;;;13.82;11.60;;;;;;;-148.88;89.04;74818.59;5015169;28;20105;-84
2022/07/21 09:54:52;;;;;;;12.55;10.85;;;;;;;-148.88;86.89;74782.06;5015662;28;20026;-84
2022/07/21 09:57:18;;;;;;;20.40;11.68;;;;;;;-148.88;84.27;74725.19;5014282;28;20053;-84
2022/07/21 09:59:46;;;;;;;12.68;11.35;;;;;;;-148.88;83.57;74700.84;5015494;28;20021;-85
2022/07/21 10:02:26;;;;;;;11.70;10.32;;;;;;;-148.88;82.20;74717.06;5015348;28;20026;-85
2022/07/21 10:04:59;;;;;;;11.60;10.40;;;;;;;-148.88;83.04;74745.50;5014987;28;20393;-85
2022/07/21 10:07:27;;;;;;;13.02;11.40;;;;;;;-148.88;84.38;74761.75;5013736;28;20115;-85
2022/07/21 10:09:54;;;;;;;16.95;12.40;;;;;;;-148.88;87.99;74773.94;5014045;28;20026;-85
2022/07/21 10:12:20;;;;;;;13.40;12.00;;;;;;;-148.88;89.94;74765.81;5013431;28;20492;-84
2022/07/21 10:14:46;;;;;;;11.95;10.73;;;;;;;-148.88;91.11;74743.47;5013353;28;20384;-85
2022/07/21 10:17:13;;;;;;;12.00;10.68;;;;;;;-148.88;85.84;74757.69;5013205;28;20033;-85
2022/07/21 10:19:54;;;;;;;11.50;10.38;;;;;;;-148.88;84.49;74751.59;5014529;28;20527;-85
2022/07/21 10:22:26;;;;;;;11.38;9.63;;;;;;;-148.88;85.87;74682.56;5014817;28;20048;-85
2022/07/21 10:24:52;;;;;;;12.77;11.38;;;;;;;-148.88;81.67;74615.53;5014169;28;20040;-85
2022/07/21 10:27:29;;;;;;;10.80;9.60;;;;;;;-148.88;80.10;74595.25;5013905;28;20041;-85
2022/07/21 10:30:06;;;;;;;12.75;9.85;;;;;;;-148.88;77.18;74656.16;5013956;28;20022;-86
2022/07/21 10:32:49;;;;;;;10.52;9.43;;;;;;;-148.88;77.85;74654.13;5013907;28;20534;-85
2022/07/21 10:35:26;;;;;;;11.35;10.15;;;;;;;-148.88;78.31;74686.63;5015070;28;20034;-84
2022/07/21 10:37:52;;;;;;;13.23;10.00;;;;;;;-148.88;81.51;74684.59;5015112;28;20049;-86
2022/07/21 10:40:20;;;;;;;13.10;10.63;;;;;;;-148.88;81.74;74710.97;5014352;28;20093;-84
2022/07/21 10:43:05;;;;;;;12.77;10.50;;;;;;;-148.88;81.03;74702.84;5014423;28;20559;-85
2022/07/21 10:45:31;;;;;;;11.93;10.65;;;;;;;-148.88;81.46;74696.78;5014562;28;20037;-85
2022/07/21 10:48:00;;;;;;;13.50;10.88;;;;;;;-148.88;83.23;74690.69;5014233;28;20022;-85
2022/07/21 10:50:37;;;;;;;13.88;11.25;;;;;;;-148.88;81.56;74729.25;5014321;28;20096;-85
2022/07/21 10:53:14;;;;;;;11.93;10.30;;;;;;;-148.88;82.97;74737.38;5014639;28;20030;-84
2022/07/21 10:55:47;;;;;;;11.88;10.55;;;;;;;-148.88;81.10;74745.50;5014359;28;20032;-84
2022/07/21 10:58:22;;;;;;;13.68;9.73;;;;;;;-148.88;81.68;74749.56;5013159;28;20025;-82